Time;durP1;ratioP1;P1;durP2;ratioP2;P2;SDS_P1;SDS_P2;PMS_P1;PMS_P2;Temp;Humidity;BMP_temperature;BMP_pressure;BME280_temperature;BME280_humidity;BME280_pressure;Samples;Min_cycle;Max_cycle;Signal;HPM_P1;HPM_P2
2022/06/04 00:00:40;;;;;;;;;;;13.00;99.90;;;;;;5035600;28;37863;-54
2022/06/04 00:03:07;;;;;;;;;;;12.90;99.90;;;;;;5035790;28;37811;-54
2022/06/04 00:05:37;;;;;;;;;;;12.90;99.90;;;;;;5035652;28;37701;-52
2022/06/04 00:08:05;;;;;;;;;;;12.90;99.90;;;;;;5035137;28;35900;-54
2022/06/04 00:16:05;;;;;;;;;;;12.90;99.90;;;;;;5034806;28;38457;-54
2022/06/04 00:18:32;;;;;;;;;;;12.90;99.90;;;;;;5034613;28;36648;-54
2022/06/04 00:20:59;;;;;;;;;;;12.90;99.90;;;;;;5034567;28;38052;-53
2022/06/04 00:23:26;;;;;;;;;;;12.90;99.90;;;;;;5035357;28;39116;-53
2022/06/04 00:25:54;;;;;;;;;;;12.80;99.90;;;;;;5034578;28;37860;-54
2022/06/04 00:28:23;;;;;;;;;;;12.90;99.90;;;;;;5035004;28;36335;-53
2022/06/04 00:30:52;;;;;;;;;;;12.90;99.90;;;;;;5034423;28;38413;-53
2022/06/04 00:33:19;;;;;;;;;;;12.90;99.90;;;;;;5035296;28;37948;-54
2022/06/04 00:35:47;;;;;;;;;;;12.80;99.90;;;;;;5034903;28;37820;-54
2022/06/04 00:38:16;;;;;;;;;;;12.80;99.90;;;;;;5035099;28;35046;-53
2022/06/04 00:40:45;;;;;;;;;;;12.80;99.90;;;;;;5034356;28;37827;-54
2022/06/04 00:43:13;;;;;;;;;;;12.80;99.90;;;;;;5032804;28;38191;-52
2022/06/04 00:45:58;;;;;;;;;;;12.80;99.90;;;;;;5033707;28;36895;-54
2022/06/04 00:48:27;;;;;;;;;;;12.80;99.90;;;;;;5034496;28;37056;-54
2022/06/04 00:50:54;;;;;;;;;;;12.80;99.90;;;;;;5034185;28;38905;-52
2022/06/04 00:53:21;;;;;;;;;;;12.80;99.90;;;;;;5034165;28;36849;-54
2022/06/04 00:55:53;;;;;;;;;;;12.80;99.90;;;;;;5033252;28;38055;-54
2022/06/04 00:58:33;;;;;;;;;;;12.70;99.90;;;;;;5034699;28;36985;-53
2022/06/04 01:01:03;;;;;;;;;;;12.70;99.90;;;;;;5033927;28;38437;-53
2022/06/04 01:03:37;;;;;;;;;;;12.70;99.90;;;;;;5033379;28;36759;-54
2022/06/04 01:06:13;;;;;;;;;;;12.70;99.90;;;;;;5033453;28;37055;-54
2022/06/04 01:08:58;;;;;;;;;;;12.70;99.90;;;;;;5034882;28;36460;-54
2022/06/04 01:11:29;;;;;;;;;;;12.70;99.90;;;;;;5033775;28;37007;-54
2022/06/04 01:14:05;;;;;;;;;;;12.70;99.90;;;;;;5033859;28;37866;-54
2022/06/04 01:16:37;;;;;;;;;;;12.60;99.90;;;;;;5033778;28;35807;-53
2022/06/04 01:19:11;;;;;;;;;;;12.60;99.90;;;;;;5022977;28;36992;-52
2022/06/04 01:21:41;;;;;;;;;;;12.60;99.90;;;;;;5033748;28;35739;-53
2022/06/04 01:24:25;;;;;;;;;;;12.60;99.90;;;;;;5034060;28;38014;-54
2022/06/04 01:27:02;;;;;;;;;;;12.50;99.90;;;;;;5032942;28;37838;-53
2022/06/04 01:29:32;;;;;;;;;;;12.50;99.90;;;;;;5033534;28;36936;-52
2022/06/04 01:32:05;;;;;;;;;;;12.50;99.90;;;;;;5033931;28;36627;-52
2022/06/04 01:34:34;;;;;;;;;;;12.50;99.90;;;;;;5033347;28;39782;-54
2022/06/04 01:37:02;;;;;;;;;;;12.50;99.90;;;;;;5034165;28;36983;-54
2022/06/04 01:41:03;;;;;;;;;;;12.50;99.90;;;;;;5033336;28;36500;-54
2022/06/04 01:42:18;;;;;;;;;;;12.40;99.90;;;;;;5033929;28;37255;-53
2022/06/04 01:44:46;;;;;;;;;;;12.50;99.90;;;;;;5033510;28;36659;-53
2022/06/04 01:47:14;;;;;;;;;;;12.40;99.90;;;;;;5033879;28;37471;-53
2022/06/04 01:49:43;;;;;;;;;;;12.40;99.90;;;;;;5033574;28;36226;-53
2022/06/04 01:52:15;;;;;;;;;;;12.40;99.90;;;;;;5033777;28;37460;-53
2022/06/04 01:54:57;;;;;;;;;;;12.40;99.90;;;;;;5033329;28;37963;-54
2022/06/04 01:57:27;;;;;;;;;;;12.40;99.90;;;;;;5033036;28;37373;-54
2022/06/04 01:59:56;;;;;;;;;;;12.40;99.90;;;;;;5033153;28;36502;-54
2022/06/04 02:02:25;;;;;;;;;;;12.40;99.90;;;;;;5033454;28;38293;-53
2022/06/04 02:04:54;;;;;;;;;;;12.30;99.90;;;;;;5032988;28;37647;-54
2022/06/04 02:07:31;;;;;;;;;;;12.30;99.90;;;;;;5033388;28;37601;-54
2022/06/04 02:10:00;;;;;;;;;;;12.30;99.90;;;;;;5033093;28;35192;-53
2022/06/04 02:12:29;;;;;;;;;;;12.30;99.90;;;;;;5033377;28;37816;-53
2022/06/04 02:14:56;;;;;;;;;;;12.30;99.90;;;;;;5032910;28;38604;-53
2022/06/04 02:17:25;;;;;;;;;;;12.30;99.90;;;;;;5034233;28;29307;-53
2022/06/04 02:19:52;;;;;;;;;;;12.30;99.90;;;;;;5032788;28;36557;-54
2022/06/04 02:22:19;;;;;;;;;;;12.20;99.90;;;;;;5033539;28;37689;-54
2022/06/04 02:24:47;;;;;;;;;;;12.20;99.90;;;;;;5033008;28;38619;-53
2022/06/04 02:27:14;;;;;;;;;;;12.20;99.90;;;;;;5033810;28;35960;-53
2022/06/04 02:29:43;;;;;;;;;;;12.20;99.90;;;;;;5032579;28;36132;-53
2022/06/04 02:32:15;;;;;;;;;;;12.20;99.90;;;;;;5033108;28;38752;-53
2022/06/04 02:34:47;;;;;;;;;;;12.10;99.90;;;;;;5032637;28;37816;-52
2022/06/04 02:37:15;;;;;;;;;;;12.10;99.90;;;;;;5032394;28;36908;-52
2022/06/04 02:39:45;;;;;;;;;;;12.10;99.90;;;;;;5032988;28;35051;-54
2022/06/04 02:42:14;;;;;;;;;;;12.10;99.90;;;;;;5032725;28;37447;-53
2022/06/04 02:44:45;;;;;;;;;;;12.00;99.90;;;;;;5032725;28;39078;-54
2022/06/04 02:47:14;;;;;;;;;;;12.00;99.90;;;;;;5032528;28;37469;-52
2022/06/04 02:49:45;;;;;;;;;;;12.00;99.90;;;;;;5032077;28;35898;-54
2022/06/04 02:52:13;;;;;;;;;;;12.00;99.90;;;;;;5032410;28;38593;-54
2022/06/04 02:54:44;;;;;;;;;;;12.00;99.90;;;;;;5032919;28;39164;-54
2022/06/04 02:57:13;;;;;;;;;;;11.90;99.90;;;;;;5033594;28;36945;-53
2022/06/04 02:59:41;;;;;;;;;;;11.90;99.90;;;;;;5033020;28;36411;-53
2022/06/04 03:02:11;;;;;;;;;;;11.90;99.90;;;;;;5032606;28;36512;-54
2022/06/04 03:04:42;;;;;;;;;;;11.90;99.90;;;;;;5032819;28;38021;-53
2022/06/04 03:07:09;;;;;;;;;;;11.90;99.90;;;;;;5018334;28;37972;-54
2022/06/04 03:09:38;;;;;;;;;;;11.90;99.90;;;;;;5032799;28;35223;-53
2022/06/04 03:12:06;;;;;;;;;;;12.00;99.90;;;;;;5022682;28;37597;-53
2022/06/04 03:14:33;;;;;;;;;;;12.00;99.90;;;;;;5021094;28;37932;-53
2022/06/04 03:17:00;;;;;;;;;;;12.00;99.90;;;;;;5032537;28;38674;-54
2022/06/04 03:19:28;;;;;;;;;;;12.00;99.90;;;;;;5032687;28;36372;-52
2022/06/04 03:21:55;;;;;;;;;;;12.00;99.90;;;;;;5032469;28;35530;-53
2022/06/04 03:24:22;;;;;;;;;;;12.00;99.90;;;;;;5032437;28;37773;-53
2022/06/04 03:26:49;;;;;;;;;;;12.10;99.90;;;;;;5032327;28;35351;-53
2022/06/04 03:29:17;;;;;;;;;;;12.10;99.90;;;;;;5031459;28;36969;-53
2022/06/04 03:31:45;;;;;;;;;;;12.10;99.90;;;;;;5032889;28;38015;-54
2022/06/04 03:34:13;;;;;;;;;;;12.10;99.90;;;;;;5032386;28;38656;-54
2022/06/04 03:36:42;;;;;;;;;;;12.10;99.90;;;;;;5031606;28;36047;-54
2022/06/04 03:39:09;;;;;;;;;;;12.10;99.90;;;;;;5032226;28;36197;-53
2022/06/04 03:41:36;;;;;;;;;;;12.10;99.90;;;;;;5032178;28;38405;-52
2022/06/04 03:44:04;;;;;;;;;;;12.10;99.90;;;;;;5031819;28;39060;-53
2022/06/04 03:46:32;;;;;;;;;;;12.10;99.90;;;;;;5031829;28;35840;-54
2022/06/04 03:48:59;;;;;;;;;;;12.20;99.90;;;;;;5031975;28;37194;-53
2022/06/04 03:51:26;;;;;;;;;;;12.20;99.90;;;;;;5034206;28;37795;-53
2022/06/04 03:53:55;;;;;;;;;;;12.20;99.90;;;;;;5034921;28;37810;-54
2022/06/04 03:56:23;;;;;;;;;;;12.20;99.90;;;;;;5034889;28;36692;-54
2022/06/04 03:58:50;;;;;;;;;;;12.20;99.90;;;;;;5034615;28;38150;-53
2022/06/04 04:01:18;;;;;;;;;;;12.30;99.90;;;;;;5035152;28;38106;-53
2022/06/04 04:03:45;;;;;;;;;;;12.30;99.90;;;;;;5034895;28;38053;-53
2022/06/04 04:06:13;;;;;;;;;;;12.40;99.90;;;;;;5035377;28;38245;-53
2022/06/04 04:08:40;;;;;;;;;;;12.50;99.90;;;;;;5034441;28;37352;-54
2022/06/04 04:11:11;;;;;;;;;;;12.50;99.90;;;;;;5034245;28;36565;-54
2022/06/04 04:13:38;;;;;;;;;;;12.60;99.90;;;;;;5035379;28;37625;-53
2022/06/04 04:16:06;;;;;;;;;;;12.70;99.90;;;;;;5024161;28;37347;-54
2022/06/04 04:18:34;;;;;;;;;;;12.80;99.90;;;;;;5019859;28;38532;-53
2022/06/04 04:21:04;;;;;;;;;;;12.90;99.90;;;;;;5032639;28;36329;-54
2022/06/04 04:23:31;;;;;;;;;;;13.00;99.90;;;;;;5030927;28;39285;-53
2022/06/04 04:25:58;;;;;;;;;;;13.10;99.90;;;;;;5034436;28;38610;-54
2022/06/04 04:28:26;;;;;;;;;;;13.20;99.90;;;;;;5035098;28;38426;-53
2022/06/04 04:30:54;;;;;;;;;;;13.30;99.90;;;;;;5034692;28;39121;-53
2022/06/04 04:33:21;;;;;;;;;;;13.50;99.90;;;;;;5034766;28;38245;-53
2022/06/04 04:35:48;;;;;;;;;;;13.50;99.90;;;;;;5034514;28;37951;-52
2022/06/04 04:38:21;;;;;;;;;;;13.60;99.90;;;;;;5034490;28;37723;-54
2022/06/04 04:40:48;;;;;;;;;;;13.70;99.90;;;;;;5034195;28;38432;-53
2022/06/04 04:43:16;;;;;;;;;;;13.80;99.90;;;;;;5033864;28;37719;-53
2022/06/04 04:45:44;;;;;;;;;;;13.90;99.90;;;;;;5034225;28;35980;-54
2022/06/04 04:48:11;;;;;;;;;;;14.10;99.90;;;;;;5034340;28;36049;-54
2022/06/04 04:50:43;;;;;;;;;;;14.20;99.90;;;;;;5033797;28;37968;-54
2022/06/04 04:53:11;;;;;;;;;;;14.30;99.90;;;;;;5017378;28;38895;-54
2022/06/04 04:55:39;;;;;;;;;;;14.30;99.90;;;;;;5031151;28;39878;-54
2022/06/04 04:58:06;;;;;;;;;;;14.40;99.90;;;;;;5034180;28;36668;-54
2022/06/04 05:00:34;;;;;;;;;;;14.50;99.90;;;;;;5033412;28;36758;-54
2022/06/04 05:03:02;;;;;;;;;;;14.60;99.90;;;;;;5032612;28;39253;-54
2022/06/04 05:05:29;;;;;;;;;;;14.70;99.90;;;;;;5034522;28;38177;-53
2022/06/04 05:07:57;;;;;;;;;;;14.80;99.90;;;;;;5034078;28;37602;-54
2022/06/04 05:10:24;;;;;;;;;;;14.80;99.90;;;;;;5033824;28;37764;-54
2022/06/04 05:12:52;;;;;;;;;;;14.90;99.90;;;;;;5034301;28;37801;-53
2022/06/04 05:15:19;;;;;;;;;;;15.00;99.90;;;;;;5033731;28;37370;-54
2022/06/04 05:17:47;;;;;;;;;;;15.10;99.90;;;;;;5033497;28;35096;-53
2022/06/04 05:20:15;;;;;;;;;;;15.20;99.90;;;;;;5032946;28;38086;-53
2022/06/04 05:22:45;;;;;;;;;;;15.30;99.90;;;;;;5033109;28;38085;-54
2022/06/04 05:25:13;;;;;;;;;;;15.40;99.90;;;;;;5033581;28;37474;-54
2022/06/04 05:27:40;;;;;;;;;;;15.50;99.90;;;;;;5033666;28;37352;-54
2022/06/04 05:30:07;;;;;;;;;;;15.50;99.90;;;;;;5033940;28;39147;-54
2022/06/04 05:32:35;;;;;;;;;;;15.60;99.90;;;;;;5032825;28;36778;-53
2022/06/04 05:35:03;;;;;;;;;;;15.70;99.90;;;;;;5033601;28;36402;-54
2022/06/04 05:37:31;;;;;;;;;;;15.80;99.90;;;;;;5033571;28;37457;-53
2022/06/04 05:39:59;;;;;;;;;;;15.90;99.80;;;;;;5033135;28;38512;-54
2022/06/04 05:42:26;;;;;;;;;;;16.00;99.90;;;;;;5034096;28;36588;-54
2022/06/04 05:44:53;;;;;;;;;;;16.10;99.70;;;;;;5033180;28;38511;-54
2022/06/04 05:47:20;;;;;;;;;;;16.20;98.90;;;;;;5033603;28;37693;-54
2022/06/04 05:49:47;;;;;;;;;;;16.20;99.50;;;;;;5033288;28;37841;-53
2022/06/04 05:52:14;;;;;;;;;;;16.20;99.40;;;;;;5033107;28;38525;-54
2022/06/04 05:54:43;;;;;;;;;;;16.20;99.00;;;;;;5033379;28;35847;-54
2022/06/04 05:57:10;;;;;;;;;;;16.30;99.60;;;;;;5033131;28;35083;-54
2022/06/04 05:59:37;;;;;;;;;;;16.40;99.20;;;;;;5033634;28;39109;-53
2022/06/04 06:02:04;;;;;;;;;;;16.50;99.10;;;;;;5032395;28;38429;-54
2022/06/04 06:04:31;;;;;;;;;;;16.60;99.00;;;;;;5032738;28;37915;-53
2022/06/04 06:07:00;;;;;;;;;;;16.70;98.80;;;;;;5032739;28;36448;-54
2022/06/04 06:09:27;;;;;;;;;;;16.80;98.10;;;;;;5032596;28;37628;-54
2022/06/04 06:11:56;;;;;;;;;;;16.80;97.00;;;;;;5032837;28;39789;-54
2022/06/04 06:14:23;;;;;;;;;;;16.50;96.10;;;;;;5032477;28;37138;-54
2022/06/04 06:16:51;;;;;;;;;;;16.30;97.00;;;;;;5032880;28;37012;-54
2022/06/04 06:19:19;;;;;;;;;;;16.20;97.90;;;;;;5033333;28;37623;-54
2022/06/04 06:21:47;;;;;;;;;;;16.10;97.50;;;;;;5032098;28;37112;-54
2022/06/04 06:24:16;;;;;;;;;;;16.00;98.60;;;;;;5031715;28;37757;-54
2022/06/04 06:26:44;;;;;;;;;;;16.00;98.40;;;;;;5031998;28;34896;-54
2022/06/04 06:29:13;;;;;;;;;;;16.00;98.60;;;;;;5032740;28;36412;-55
2022/06/04 06:31:40;;;;;;;;;;;16.00;98.60;;;;;;5032643;28;38319;-54
2022/06/04 06:34:07;;;;;;;;;;;16.00;98.90;;;;;;5032395;28;37347;-54
2022/06/04 06:36:34;;;;;;;;;;;16.20;99.20;;;;;;5032354;28;36077;-55
2022/06/04 06:39:01;;;;;;;;;;;16.30;99.20;;;;;;5032158;28;37781;-54
2022/06/04 06:41:28;;;;;;;;;;;16.60;99.30;;;;;;5032725;28;38307;-55
2022/06/04 06:43:55;;;;;;;;;;;16.70;97.50;;;;;;5032315;28;38281;-54
2022/06/04 06:46:25;;;;;;;;;;;16.90;97.80;;;;;;5032718;28;37040;-55
2022/06/04 06:48:53;;;;;;;;;;;17.10;97.80;;;;;;5032063;28;37835;-54
2022/06/04 06:51:21;;;;;;;;;;;17.20;97.40;;;;;;5032350;28;38186;-55
2022/06/04 06:53:48;;;;;;;;;;;17.30;97.50;;;;;;5032475;28;37021;-54
2022/06/04 06:56:16;;;;;;;;;;;17.40;96.60;;;;;;5032075;28;35180;-54
2022/06/04 06:58:44;;;;;;;;;;;17.40;95.90;;;;;;5033050;28;35445;-54
2022/06/04 07:01:11;;;;;;;;;;;17.40;96.60;;;;;;5031878;28;38617;-54
2022/06/04 07:03:40;;;;;;;;;;;17.30;95.80;;;;;;5032687;28;35943;-55
2022/06/04 07:06:08;;;;;;;;;;;17.30;96.00;;;;;;5032956;28;37213;-54
2022/06/04 07:08:35;;;;;;;;;;;17.30;96.60;;;;;;5032367;28;38360;-54
2022/06/04 07:11:02;;;;;;;;;;;17.40;96.40;;;;;;5031812;28;38528;-54
2022/06/04 07:13:29;;;;;;;;;;;17.60;97.30;;;;;;5031225;28;37826;-55
2022/06/04 07:15:56;;;;;;;;;;;17.80;95.70;;;;;;5031665;28;36642;-54
2022/06/04 07:18:24;;;;;;;;;;;18.00;96.40;;;;;;5031895;28;38928;-55
2022/06/04 07:20:53;;;;;;;;;;;18.10;96.00;;;;;;5032038;28;39219;-55
2022/06/04 07:23:20;;;;;;;;;;;18.20;95.90;;;;;;5032235;28;35902;-54
2022/06/04 07:25:47;;;;;;;;;;;18.20;95.30;;;;;;5033622;28;37317;-54
2022/06/04 07:28:15;;;;;;;;;;;18.20;94.30;;;;;;5035660;28;38255;-54
2022/06/04 07:30:42;;;;;;;;;;;18.30;94.20;;;;;;5035874;28;36610;-54
2022/06/04 07:33:09;;;;;;;;;;;18.30;94.40;;;;;;5035099;28;38319;-55
2022/06/04 07:35:37;;;;;;;;;;;18.30;94.30;;;;;;5035491;28;37219;-55
2022/06/04 07:38:05;;;;;;;;;;;18.50;94.30;;;;;;5026364;28;37309;-55
2022/06/04 07:40:32;;;;;;;;;;;18.60;94.30;;;;;;5031584;28;38659;-55
2022/06/04 07:42:59;;;;;;;;;;;18.50;90.80;;;;;;5028020;28;38724;-55
2022/06/04 07:45:26;;;;;;;;;;;18.40;93.30;;;;;;5034902;28;36630;-55
2022/06/04 07:47:53;;;;;;;;;;;18.40;93.50;;;;;;5027114;28;39270;-54
2022/06/04 07:50:20;;;;;;;;;;;18.40;91.90;;;;;;5023586;28;39486;-55
2022/06/04 07:52:47;;;;;;;;;;;18.40;92.00;;;;;;5028628;28;38262;-54
2022/06/04 07:55:16;;;;;;;;;;;18.40;94.60;;;;;;5035746;28;35141;-55
2022/06/04 07:57:43;;;;;;;;;;;18.60;93.20;;;;;;5028956;28;38748;-54
2022/06/04 08:00:10;;;;;;;;;;;18.70;93.10;;;;;;5034873;28;38184;-55
2022/06/04 08:02:38;;;;;;;;;;;18.70;92.90;;;;;;5028778;28;37496;-55
2022/06/04 08:05:05;;;;;;;;;;;18.80;93.30;;;;;;5023161;28;36687;-55
2022/06/04 08:07:32;;;;;;;;;;;18.90;92.60;;;;;;5029052;28;38169;-54
2022/06/04 08:09:59;;;;;;;;;;;18.90;91.20;;;;;;5021281;28;36558;-55
2022/06/04 08:12:30;;;;;;;;;;;18.90;92.30;;;;;;5029412;28;39568;-55
2022/06/04 08:14:58;;;;;;;;;;;18.90;90.20;;;;;;5027821;28;36257;-54
2022/06/04 08:17:25;;;;;;;;;;;18.90;91.10;;;;;;5028856;28;39216;-55
2022/06/04 08:19:52;;;;;;;;;;;18.90;91.20;;;;;;5021275;28;37820;-55
2022/06/04 08:22:19;;;;;;;;;;;19.00;90.90;;;;;;5035049;28;37734;-55
2022/06/04 08:24:48;;;;;;;;;;;19.00;90.30;;;;;;5034751;28;36881;-55
2022/06/04 08:27:15;;;;;;;;;;;19.10;91.90;;;;;;5034521;28;38469;-54
2022/06/04 08:29:44;;;;;;;;;;;19.10;88.90;;;;;;5034338;28;38182;-54
2022/06/04 08:32:11;;;;;;;;;;;19.20;91.60;;;;;;5034632;28;37995;-55
2022/06/04 08:34:38;;;;;;;;;;;19.30;91.30;;;;;;5033700;28;35969;-55
2022/06/04 08:37:06;;;;;;;;;;;19.40;91.40;;;;;;5031912;28;39819;-54
2022/06/04 08:39:33;;;;;;;;;;;19.40;90.80;;;;;;5030773;28;37899;-55
2022/06/04 08:42:03;;;;;;;;;;;19.50;90.50;;;;;;5034232;28;35985;-55
2022/06/04 08:44:33;;;;;;;;;;;19.60;90.90;;;;;;5034271;28;36247;-55
2022/06/04 08:47:05;;;;;;;;;;;19.60;90.60;;;;;;5034014;28;37549;-55
2022/06/04 08:49:33;;;;;;;;;;;19.70;87.60;;;;;;5034173;28;37613;-55
2022/06/04 08:52:02;;;;;;;;;;;19.70;90.80;;;;;;5033258;28;36078;-55
2022/06/04 08:57:36;;;;;;;;;;;19.90;84.00;;;;;;5034615;28;39367;-55
2022/06/04 09:00:07;;;;;;;;;;;19.90;88.50;;;;;;5034668;28;38008;-55
2022/06/04 09:02:41;;;;;;;;;;;19.90;81.40;;;;;;5034029;28;37055;-55
2022/06/04 09:05:13;;;;;;;;;;;19.70;82.10;;;;;;5034211;28;36181;-55
2022/06/04 09:07:42;;;;;;;;;;;19.60;85.40;;;;;;5033976;28;37408;-55
2022/06/04 09:10:14;;;;;;;;;;;19.50;83.70;;;;;;5034053;28;38516;-55
2022/06/04 09:12:44;;;;;;;;;;;19.40;85.50;;;;;;5027481;28;37030;-55
2022/06/04 09:15:13;;;;;;;;;;;19.20;86.20;;;;;;5033623;28;35956;-55
2022/06/04 09:17:45;;;;;;;;;;;19.00;89.80;;;;;;5033934;28;38680;-54
2022/06/04 09:20:17;;;;;;;;;;;18.90;89.00;;;;;;5033286;28;37796;-54
2022/06/04 09:22:47;;;;;;;;;;;18.80;89.20;;;;;;5033696;28;37934;-54
2022/06/04 09:25:15;;;;;;;;;;;18.70;88.70;;;;;;5034302;28;37453;-55
2022/06/04 09:27:43;;;;;;;;;;;18.70;88.00;;;;;;5033141;28;37510;-55
2022/06/04 09:30:17;;;;;;;;;;;18.80;91.20;;;;;;5033858;28;38412;-55
2022/06/04 09:32:52;;;;;;;;;;;18.90;91.20;;;;;;5032613;28;37367;-55
2022/06/04 09:35:23;;;;;;;;;;;18.90;87.40;;;;;;5033026;28;36601;-55
2022/06/04 09:37:50;;;;;;;;;;;18.80;87.70;;;;;;5033052;28;38281;-54
2022/06/04 09:40:20;;;;;;;;;;;18.60;86.10;;;;;;5033592;28;36580;-55
2022/06/04 09:42:47;;;;;;;;;;;18.60;90.00;;;;;;5033675;28;39210;-53
2022/06/04 09:45:22;;;;;;;;;;;18.70;90.40;;;;;;5033733;28;37301;-54
2022/06/04 09:47:54;;;;;;;;;;;18.80;90.80;;;;;;5032018;28;40398;-54
2022/06/04 09:50:25;;;;;;;;;;;19.10;91.10;;;;;;5032929;28;38088;-54
2022/06/04 09:53:00;;;;;;;;;;;19.30;91.10;;;;;;5031234;28;37420;-54
2022/06/04 09:55:28;;;;;;;;;;;19.50;89.30;;;;;;5017199;28;38129;-55
2022/06/04 09:57:56;;;;;;;;;;;19.60;86.90;;;;;;5031638;28;37936;-52
2022/06/04 10:00:25;;;;;;;;;;;19.60;87.10;;;;;;5033292;28;36517;-55
2022/06/04 10:02:57;;;;;;;;;;;19.70;87.50;;;;;;5032997;28;38878;-55
2022/06/04 10:05:25;;;;;;;;;;;19.80;81.30;;;;;;5032826;28;35635;-55
2022/06/04 10:07:52;;;;;;;;;;;20.00;88.40;;;;;;5033516;28;37881;-54
2022/06/04 10:10:23;;;;;;;;;;;20.20;90.40;;;;;;5032283;28;38009;-54
2022/06/04 10:15:41;;;;;;;;;;;20.50;88.70;;;;;;5033527;28;36144;-54
2022/06/04 10:18:18;;;;;;;;;;;20.60;81.80;;;;;;5032677;28;37744;-54
2022/06/04 10:20:52;;;;;;;;;;;20.60;82.70;;;;;;5032313;28;37569;-54
2022/06/04 10:23:19;;;;;;;;;;;20.70;81.00;;;;;;5032267;28;36704;-54
2022/06/04 10:25:50;;;;;;;;;;;20.70;84.90;;;;;;5033031;28;36957;-54
2022/06/04 10:28:25;;;;;;;;;;;20.80;82.40;;;;;;5032672;28;37607;-54
2022/06/04 10:30:56;;;;;;;;;;;20.70;78.00;;;;;;5032206;28;39531;-54
2022/06/04 10:33:33;;;;;;;;;;;20.60;86.90;;;;;;5032443;28;38233;-54
2022/06/04 10:36:05;;;;;;;;;;;20.70;84.60;;;;;;5032725;28;37117;-55
2022/06/04 10:38:40;;;;;;;;;;;20.70;84.00;;;;;;5032515;28;38338;-54
2022/06/04 10:41:13;;;;;;;;;;;20.70;82.20;;;;;;5032978;28;40971;-54
2022/06/04 10:43:46;;;;;;;;;;;20.80;79.50;;;;;;5032406;28;35844;-54
2022/06/04 10:46:18;;;;;;;;;;;20.80;81.00;;;;;;5032075;28;36969;-53
2022/06/04 10:48:55;;;;;;;;;;;20.90;86.30;;;;;;5033278;28;39120;-54
2022/06/04 10:51:26;;;;;;;;;;;21.00;85.60;;;;;;5031975;28;38628;-54
2022/06/04 10:53:59;;;;;;;;;;;21.00;79.90;;;;;;5032193;28;37000;-55
2022/06/04 10:56:28;;;;;;;;;;;21.00;87.10;;;;;;5032888;28;36498;-55
2022/06/04 10:59:02;;;;;;;;;;;21.00;85.10;;;;;;5031713;28;36422;-55
2022/06/04 11:01:32;;;;;;;;;;;21.00;77.60;;;;;;5031571;28;38685;-55
2022/06/04 11:04:07;;;;;;;;;;;21.00;83.80;;;;;;5032066;28;37282;-55
2022/06/04 11:06:38;;;;;;;;;;;21.00;82.30;;;;;;5032665;28;36645;-54
2022/06/04 11:09:07;;;;;;;;;;;21.00;81.80;;;;;;5031544;28;38200;-55
2022/06/04 11:11:36;;;;;;;;;;;20.90;79.00;;;;;;5032395;28;38773;-54
2022/06/04 11:14:08;;;;;;;;;;;20.90;83.30;;;;;;5031407;28;37373;-54
2022/06/04 11:16:38;;;;;;;;;;;20.90;82.10;;;;;;5031763;28;36666;-54
2022/06/04 11:19:10;;;;;;;;;;;21.00;86.70;;;;;;5031918;28;39228;-54
2022/06/04 11:21:40;;;;;;;;;;;21.00;84.10;;;;;;5032240;28;37835;-55
2022/06/04 11:24:11;;;;;;;;;;;21.10;79.90;;;;;;5031821;28;38417;-54
2022/06/04 11:26:39;;;;;;;;;;;21.00;78.80;;;;;;5031534;28;37424;-54
2022/06/04 11:29:06;;;;;;;;;;;21.00;79.20;;;;;;5031821;28;38875;-55
2022/06/04 11:31:41;;;;;;;;;;;20.90;77.50;;;;;;5032032;28;37930;-54
2022/06/04 11:34:22;;;;;;;;;;;20.90;79.60;;;;;;5032125;28;37364;-54
2022/06/04 11:36:54;;;;;;;;;;;20.80;79.10;;;;;;5032176;28;36544;-55
2022/06/04 11:39:27;;;;;;;;;;;20.90;79.60;;;;;;5031871;28;38850;-54
2022/06/04 11:41:59;;;;;;;;;;;20.90;83.10;;;;;;5031838;28;37930;-54
2022/06/04 11:44:35;;;;;;;;;;;20.90;84.50;;;;;;5031761;28;38252;-54
2022/06/04 11:47:11;;;;;;;;;;;21.00;83.30;;;;;;5032327;28;37091;-54
2022/06/04 11:49:44;;;;;;;;;;;21.00;84.80;;;;;;5031524;28;39731;-54
2022/06/04 11:52:18;;;;;;;;;;;21.00;86.90;;;;;;5031944;28;38656;-54
2022/06/04 11:54:51;;;;;;;;;;;21.00;82.10;;;;;;5031684;28;38289;-54
2022/06/04 11:57:24;;;;;;;;;;;21.00;84.80;;;;;;5030926;28;34714;-55
2022/06/04 12:00:08;;;;;;;;;;;20.90;81.80;;;;;;5031148;28;38136;-55
2022/06/04 12:02:36;;;;;;;;;;;20.80;83.50;;;;;;5031471;28;38271;-54
2022/06/04 12:05:11;;;;;;;;;;;20.80;86.30;;;;;;5032011;28;37798;-55
2022/06/04 12:07:40;;;;;;;;;;;20.70;82.50;;;;;;5030951;28;37196;-54
2022/06/04 12:10:15;;;;;;;;;;;20.70;83.90;;;;;;5031047;28;39068;-54
2022/06/04 12:12:46;;;;;;;;;;;20.70;83.90;;;;;;5033951;28;37816;-53
2022/06/04 12:15:20;;;;;;;;;;;20.60;88.30;;;;;;5035190;28;38329;-53
2022/06/04 12:17:50;;;;;;;;;;;20.60;82.80;;;;;;5034298;28;36440;-54
2022/06/04 12:26:20;;;;;;;;;;;20.50;89.40;;;;;;5034677;28;39361;-53
2022/06/04 12:28:47;;;;;;;;;;;20.50;88.40;;;;;;5034907;28;36568;-54
2022/06/04 12:31:25;;;;;;;;;;;20.40;88.60;;;;;;5034340;28;36492;-54
2022/06/04 12:33:52;;;;;;;;;;;20.30;88.40;;;;;;5033463;28;36552;-53
2022/06/04 12:36:25;;;;;;;;;;;20.30;85.80;;;;;;5034195;28;37802;-54
2022/06/04 12:38:58;;;;;;;;;;;20.30;88.20;;;;;;5034150;28;35948;-54
2022/06/04 12:41:25;;;;;;;;;;;20.30;89.90;;;;;;5034015;28;37633;-54
2022/06/04 12:43:57;;;;;;;;;;;20.30;90.80;;;;;;5034551;28;36624;-54
2022/06/04 12:46:31;;;;;;;;;;;20.30;87.90;;;;;;5033832;28;37195;-54
2022/06/04 12:49:01;;;;;;;;;;;20.00;82.90;;;;;;5034858;28;35970;-53
2022/06/04 12:51:40;;;;;;;;;;;19.80;88.80;;;;;;5034087;28;38705;-53
2022/06/04 12:54:18;;;;;;;;;;;19.70;87.10;;;;;;5033930;28;37819;-54
2022/06/04 12:56:52;;;;;;;;;;;19.60;88.70;;;;;;5034138;28;35994;-54
2022/06/04 12:59:26;;;;;;;;;;;19.60;89.60;;;;;;5034195;28;37111;-53
2022/06/04 13:01:53;;;;;;;;;;;19.60;90.30;;;;;;5033749;28;37582;-54
2022/06/04 13:04:22;;;;;;;;;;;19.60;91.70;;;;;;5034056;28;37735;-53
2022/06/04 13:06:51;;;;;;;;;;;19.60;91.10;;;;;;5034112;28;38268;-53
2022/06/04 13:09:24;;;;;;;;;;;19.50;90.40;;;;;;5033522;28;36481;-53
2022/06/04 13:11:59;;;;;;;;;;;19.40;90.50;;;;;;5033496;28;37169;-54
2022/06/04 13:14:33;;;;;;;;;;;19.30;89.90;;;;;;5033837;28;38661;-54
2022/06/04 13:17:13;;;;;;;;;;;19.30;91.40;;;;;;5033583;28;36467;-54
2022/06/04 13:19:49;;;;;;;;;;;19.30;92.90;;;;;;5033753;28;35083;-53
2022/06/04 13:22:21;;;;;;;;;;;19.30;92.20;;;;;;5032539;28;39109;-54
2022/06/04 13:24:48;;;;;;;;;;;19.20;91.00;;;;;;5033213;28;38620;-53
2022/06/04 13:27:18;;;;;;;;;;;19.20;91.30;;;;;;5033006;28;38019;-52
2022/06/04 13:29:54;;;;;;;;;;;19.20;91.70;;;;;;5033444;28;37435;-53
2022/06/04 13:32:22;;;;;;;;;;;19.10;91.80;;;;;;5032795;28;37517;-54
2022/06/04 13:34:49;;;;;;;;;;;19.10;92.10;;;;;;5033485;28;36775;-54
2022/06/04 13:37:19;;;;;;;;;;;19.10;93.10;;;;;;5033932;28;38606;-51
2022/06/04 13:39:48;;;;;;;;;;;19.10;92.20;;;;;;5032706;28;36302;-52
2022/06/04 13:42:18;;;;;;;;;;;19.10;92.80;;;;;;5033576;28;36709;-53
2022/06/04 13:44:54;;;;;;;;;;;19.00;91.90;;;;;;5033201;28;38573;-54
2022/06/04 13:47:23;;;;;;;;;;;18.90;92.30;;;;;;5033483;28;38365;-54
2022/06/04 13:49:51;;;;;;;;;;;18.90;92.70;;;;;;5033670;28;35159;-51
2022/06/04 13:52:19;;;;;;;;;;;18.90;92.40;;;;;;5032704;28;36654;-53
2022/06/04 13:54:53;;;;;;;;;;;18.90;94.00;;;;;;5033028;28;36478;-54
2022/06/04 13:57:24;;;;;;;;;;;18.90;93.30;;;;;;5032735;28;37809;-54
2022/06/04 13:59:52;;;;;;;;;;;18.90;92.50;;;;;;5033805;28;37243;-54
2022/06/04 14:02:20;;;;;;;;;;;18.80;92.90;;;;;;5032510;28;39099;-54
2022/06/04 14:07:34;;;;;;;;;;;18.70;92.90;;;;;;5034035;28;38030;-53
2022/06/04 14:10:05;;;;;;;;;;;18.70;93.30;;;;;;5033084;28;34918;-52
2022/06/04 14:12:40;;;;;;;;;;;18.70;93.10;;;;;;5032964;28;37749;-54
2022/06/04 14:15:13;;;;;;;;;;;18.60;92.60;;;;;;5032275;28;37869;-54
2022/06/04 14:17:48;;;;;;;;;;;18.50;94.10;;;;;;5033011;28;38662;-54
2022/06/04 14:20:23;;;;;;;;;;;18.50;94.00;;;;;;5032845;28;36438;-54
2022/06/04 14:22:57;;;;;;;;;;;18.40;93.00;;;;;;5032274;28;38421;-54
2022/06/04 14:25:28;;;;;;;;;;;18.40;93.40;;;;;;5033267;28;38298;-53
2022/06/04 14:28:01;;;;;;;;;;;18.30;94.20;;;;;;5032441;28;37893;-53
2022/06/04 14:30:34;;;;;;;;;;;18.30;94.60;;;;;;5033585;28;36073;-54
2022/06/04 14:33:03;;;;;;;;;;;18.30;94.10;;;;;;5032383;28;39211;-54
2022/06/04 14:35:31;;;;;;;;;;;18.30;93.60;;;;;;5032776;28;39331;-54
2022/06/04 14:38:00;;;;;;;;;;;18.20;94.10;;;;;;5033076;28;37352;-54
2022/06/04 14:40:35;;;;;;;;;;;18.20;93.90;;;;;;5032343;28;36492;-53
2022/06/04 14:43:09;;;;;;;;;;;18.20;94.10;;;;;;5032452;28;37404;-54
2022/06/04 14:45:40;;;;;;;;;;;18.20;94.70;;;;;;5032324;28;38689;-55
2022/06/04 14:48:26;;;;;;;;;;;18.20;94.50;;;;;;5032118;28;38191;-54
2022/06/04 14:50:59;;;;;;;;;;;18.20;93.40;;;;;;5032484;28;35271;-54